sensor_id;sensor_type;location;lat;lon;timestamp;temperature;humidity
50690;DHT22;54375;48.298;11.238;2023-03-19T00:09:40;6.00;89.80
50690;DHT22;54375;48.298;11.238;2023-03-19T00:24:43;6.10;90.20
50690;DHT22;54375;48.298;11.238;2023-03-19T00:39:45;6.10;90.00
50690;DHT22;54375;48.298;11.238;2023-03-19T00:54:48;6.00;90.00
50690;DHT22;54375;48.298;11.238;2023-03-19T01:09:52;5.80;90.20
50690;DHT22;54375;48.298;11.238;2023-03-19T01:24:55;5.70;90.40
50690;DHT22;54375;48.298;11.238;2023-03-19T01:39:58;5.50;90.60
50690;DHT22;54375;48.298;11.238;2023-03-19T01:55:03;5.50;91.90
50690;DHT22;54375;48.298;11.238;2023-03-19T02:10:09;5.40;91.20
50690;DHT22;54375;48.298;11.238;2023-03-19T02:25:15;5.20;91.70
50690;DHT22;54375;48.298;11.238;2023-03-19T02:40:23;5.10;92.40
50690;DHT22;54375;48.298;11.238;2023-03-19T02:55:26;5.10;92.60
50690;DHT22;54375;48.298;11.238;2023-03-19T03:10:29;5.10;91.90
50690;DHT22;54375;48.298;11.238;2023-03-19T03:25:31;4.90;91.90
50690;DHT22;54375;48.298;11.238;2023-03-19T03:40:34;4.90;92.20
50690;DHT22;54375;48.298;11.238;2023-03-19T03:55:37;4.90;91.80
50690;DHT22;54375;48.298;11.238;2023-03-19T04:10:40;5.00;92.10
50690;DHT22;54375;48.298;11.238;2023-03-19T04:25:43;5.10;92.30
50690;DHT22;54375;48.298;11.238;2023-03-19T04:40:46;5.30;92.90
50690;DHT22;54375;48.298;11.238;2023-03-19T04:55:49;5.40;93.30
50690;DHT22;54375;48.298;11.238;2023-03-19T05:10:52;5.60;93.70
50690;DHT22;54375;48.298;11.238;2023-03-19T05:25:57;5.80;93.70
50690;DHT22;54375;48.298;11.238;2023-03-19T05:41:04;6.30;94.20
50690;DHT22;54375;48.298;11.238;2023-03-19T05:56:07;6.90;92.90
50690;DHT22;54375;48.298;11.238;2023-03-19T06:11:09;7.40;91.80
50690;DHT22;54375;48.298;11.238;2023-03-19T06:26:11;7.50;91.90
50690;DHT22;54375;48.298;11.238;2023-03-19T06:41:13;7.60;91.40
50690;DHT22;54375;48.298;11.238;2023-03-19T06:56:16;8.00;90.60
50690;DHT22;54375;48.298;11.238;2023-03-19T07:11:18;8.20;90.10
50690;DHT22;54375;48.298;11.238;2023-03-19T07:26:20;8.50;90.70
50690;DHT22;54375;48.298;11.238;2023-03-19T07:41:23;9.00;90.20
50690;DHT22;54375;48.298;11.238;2023-03-19T07:56:25;9.40;90.30
50690;DHT22;54375;48.298;11.238;2023-03-19T08:11:27;9.60;90.90
50690;DHT22;54375;48.298;11.238;2023-03-19T08:26:30;9.60;91.10
50690;DHT22;54375;48.298;11.238;2023-03-19T08:41:32;10.00;90.70
50690;DHT22;54375;48.298;11.238;2023-03-19T08:56:34;9.90;90.50
50690;DHT22;54375;48.298;11.238;2023-03-19T09:11:37;9.90;90.80
50690;DHT22;54375;48.298;11.238;2023-03-19T09:26:39;9.90;90.90
50690;DHT22;54375;48.298;11.238;2023-03-19T09:41:48;10.50;90.10
50690;DHT22;54375;48.298;11.238;2023-03-19T09:56:55;11.20;87.10
50690;DHT22;54375;48.298;11.238;2023-03-19T10:12:09;11.60;86.00
50690;DHT22;54375;48.298;11.238;2023-03-19T10:27:17;12.10;85.10
50690;DHT22;54375;48.298;11.238;2023-03-19T10:57:54;13.50;75.70
50690;DHT22;54375;48.298;11.238;2023-03-19T11:12:58;14.60;72.50
50690;DHT22;54375;48.298;11.238;2023-03-19T11:28:04;16.10;67.20
50690;DHT22;54375;48.298;11.238;2023-03-19T12:14:24;16.70;57.20
50690;DHT22;54375;48.298;11.238;2023-03-19T12:29:37;15.80;62.10
50690;DHT22;54375;48.298;11.238;2023-03-19T12:44:45;16.40;60.90
50690;DHT22;54375;48.298;11.238;2023-03-19T12:59:54;16.50;61.10
50690;DHT22;54375;48.298;11.238;2023-03-19T13:15:03;16.50;61.00
50690;DHT22;54375;48.298;11.238;2023-03-19T13:30:16;18.80;55.50
50690;DHT22;54375;48.298;11.238;2023-03-19T13:45:33;19.50;51.00
50690;DHT22;54375;48.298;11.238;2023-03-19T14:00:58;18.30;53.90
50690;DHT22;54375;48.298;11.238;2023-03-19T14:16:05;19.10;48.70
50690;DHT22;54375;48.298;11.238;2023-03-19T14:31:18;19.40;46.30
50690;DHT22;54375;48.298;11.238;2023-03-19T14:46:25;19.60;47.20
50690;DHT22;54375;48.298;11.238;2023-03-19T15:01:31;19.90;46.00
50690;DHT22;54375;48.298;11.238;2023-03-19T15:16:40;18.90;48.20
50690;DHT22;54375;48.298;11.238;2023-03-19T15:31:48;18.60;49.00
50690;DHT22;54375;48.298;11.238;2023-03-19T15:46:51;18.50;50.10
50690;DHT22;54375;48.298;11.238;2023-03-19T16:01:58;17.60;51.50
50690;DHT22;54375;48.298;11.238;2023-03-19T16:17:02;17.10;52.60
50690;DHT22;54375;48.298;11.238;2023-03-19T16:32:18;16.30;56.90
50690;DHT22;54375;48.298;11.238;2023-03-19T16:47:22;15.40;59.40
50690;DHT22;54375;48.298;11.238;2023-03-19T17:02:24;14.70;62.40
50690;DHT22;54375;48.298;11.238;2023-03-19T17:17:28;13.80;65.90
50690;DHT22;54375;48.298;11.238;2023-03-19T17:32:30;13.00;69.10
50690;DHT22;54375;48.298;11.238;2023-03-19T17:47:33;12.30;71.30
50690;DHT22;54375;48.298;11.238;2023-03-19T18:02:35;11.70;73.90
50690;DHT22;54375;48.298;11.238;2023-03-19T18:17:38;11.30;76.60
50690;DHT22;54375;48.298;11.238;2023-03-19T18:32:42;10.90;79.10
50690;DHT22;54375;48.298;11.238;2023-03-19T18:47:46;10.60;82.50
50690;DHT22;54375;48.298;11.238;2023-03-19T19:02:49;10.70;79.30
50690;DHT22;54375;48.298;11.238;2023-03-19T19:17:53;10.70;82.70
50690;DHT22;54375;48.298;11.238;2023-03-19T19:32:55;10.20;90.20
50690;DHT22;54375;48.298;11.238;2023-03-19T19:47:58;9.70;92.10
50690;DHT22;54375;48.298;11.238;2023-03-19T20:03:01;9.70;91.90
50690;DHT22;54375;48.298;11.238;2023-03-19T20:18:03;9.80;91.10
50690;DHT22;54375;48.298;11.238;2023-03-19T20:33:06;9.60;91.70
50690;DHT22;54375;48.298;11.238;2023-03-19T20:48:13;9.30;93.70
50690;DHT22;54375;48.298;11.238;2023-03-19T21:03:18;9.30;93.40
50690;DHT22;54375;48.298;11.238;2023-03-19T21:18:21;9.30;93.60
50690;DHT22;54375;48.298;11.238;2023-03-19T21:33:25;9.30;93.10
50690;DHT22;54375;48.298;11.238;2023-03-19T21:48:29;9.30;92.50
50690;DHT22;54375;48.298;11.238;2023-03-19T22:03:32;9.20;92.20
50690;DHT22;54375;48.298;11.238;2023-03-19T22:18:35;9.00;92.70
50690;DHT22;54375;48.298;11.238;2023-03-19T22:33:37;8.90;92.60
50690;DHT22;54375;48.298;11.238;2023-03-19T22:48:39;8.80;92.80
50690;DHT22;54375;48.298;11.238;2023-03-19T23:03:41;8.70;93.20
50690;DHT22;54375;48.298;11.238;2023-03-19T23:18:43;8.60;93.60
50690;DHT22;54375;48.298;11.238;2023-03-19T23:33:46;8.50;93.70
50690;DHT22;54375;48.298;11.238;2023-03-19T23:48:48;8.40;94.00
